sensor_id;sensor_type;location;lat;lon;timestamp;temperature;humidity
6756;DHT22;3415;51.148;7.014;2023-09-07T00:01:52;19.30;1.00
6756;DHT22;3415;51.148;7.014;2023-09-07T00:04:19;19.30;1.00
6756;DHT22;3415;51.148;7.014;2023-09-07T00:06:49;19.30;1.00
6756;DHT22;3415;51.148;7.014;2023-09-07T00:09:16;19.30;1.00
6756;DHT22;3415;51.148;7.014;2023-09-07T00:11:44;19.30;1.00
6756;DHT22;3415;51.148;7.014;2023-09-07T00:14:11;19.30;1.00
6756;DHT22;3415;51.148;7.014;2023-09-07T00:16:37;19.40;1.00
6756;DHT22;3415;51.148;7.014;2023-09-07T00:19:04;19.40;1.00
6756;DHT22;3415;51.148;7.014;2023-09-07T00:21:31;19.70;1.00
6756;DHT22;3415;51.148;7.014;2023-09-07T00:23:59;19.50;1.00
6756;DHT22;3415;51.148;7.014;2023-09-07T00:26:30;19.50;1.00
6756;DHT22;3415;51.148;7.014;2023-09-07T00:28:57;19.50;1.00
6756;DHT22;3415;51.148;7.014;2023-09-07T00:31:24;19.60;1.00
6756;DHT22;3415;51.148;7.014;2023-09-07T00:33:51;19.60;1.00
6756;DHT22;3415;51.148;7.014;2023-09-07T00:36:18;19.60;1.00
6756;DHT22;3415;51.148;7.014;2023-09-07T00:38:44;19.70;1.00
6756;DHT22;3415;51.148;7.014;2023-09-07T00:41:13;19.60;1.00
6756;DHT22;3415;51.148;7.014;2023-09-07T00:43:40;19.70;1.00
6756;DHT22;3415;51.148;7.014;2023-09-07T00:46:07;19.70;1.00
6756;DHT22;3415;51.148;7.014;2023-09-07T00:48:34;19.70;1.00
6756;DHT22;3415;51.148;7.014;2023-09-07T00:51:01;19.80;1.00
6756;DHT22;3415;51.148;7.014;2023-09-07T00:53:28;19.80;1.00
6756;DHT22;3415;51.148;7.014;2023-09-07T00:55:55;19.80;1.00
6756;DHT22;3415;51.148;7.014;2023-09-07T00:58:24;19.70;1.00
6756;DHT22;3415;51.148;7.014;2023-09-07T01:00:51;19.70;1.00
6756;DHT22;3415;51.148;7.014;2023-09-07T01:03:18;19.70;1.00
6756;DHT22;3415;51.148;7.014;2023-09-07T01:05:50;19.70;1.00
6756;DHT22;3415;51.148;7.014;2023-09-07T01:08:23;19.80;1.00
6756;DHT22;3415;51.148;7.014;2023-09-07T01:10:50;19.70;99.90
6756;DHT22;3415;51.148;7.014;2023-09-07T01:13:17;19.70;99.90
6756;DHT22;3415;51.148;7.014;2023-09-07T01:15:46;19.70;99.90
6756;DHT22;3415;51.148;7.014;2023-09-07T01:18:13;19.60;99.90
6756;DHT22;3415;51.148;7.014;2023-09-07T01:20:40;19.70;99.90
6756;DHT22;3415;51.148;7.014;2023-09-07T01:23:09;19.70;99.90
6756;DHT22;3415;51.148;7.014;2023-09-07T01:25:36;19.70;99.90
6756;DHT22;3415;51.148;7.014;2023-09-07T01:28:04;19.70;99.90
6756;DHT22;3415;51.148;7.014;2023-09-07T01:30:31;19.70;99.90
6756;DHT22;3415;51.148;7.014;2023-09-07T01:32:58;19.60;99.90
6756;DHT22;3415;51.148;7.014;2023-09-07T01:35:25;19.60;99.90
6756;DHT22;3415;51.148;7.014;2023-09-07T01:37:53;19.60;99.90
6756;DHT22;3415;51.148;7.014;2023-09-07T01:40:21;19.70;99.90
6756;DHT22;3415;51.148;7.014;2023-09-07T01:42:48;19.70;99.90
6756;DHT22;3415;51.148;7.014;2023-09-07T01:45:15;19.70;99.90
6756;DHT22;3415;51.148;7.014;2023-09-07T01:47:41;19.70;99.90
6756;DHT22;3415;51.148;7.014;2023-09-07T01:50:08;19.70;99.90
6756;DHT22;3415;51.148;7.014;2023-09-07T01:52:35;19.70;99.90
6756;DHT22;3415;51.148;7.014;2023-09-07T01:55:02;19.70;99.90
6756;DHT22;3415;51.148;7.014;2023-09-07T01:57:31;19.70;99.90
6756;DHT22;3415;51.148;7.014;2023-09-07T01:59:58;19.60;99.90
6756;DHT22;3415;51.148;7.014;2023-09-07T02:02:24;19.60;99.90
6756;DHT22;3415;51.148;7.014;2023-09-07T02:04:51;19.50;99.90
6756;DHT22;3415;51.148;7.014;2023-09-07T02:07:18;19.50;99.90
6756;DHT22;3415;51.148;7.014;2023-09-07T02:09:45;19.50;99.90
6756;DHT22;3415;51.148;7.014;2023-09-07T02:12:11;19.50;99.90
6756;DHT22;3415;51.148;7.014;2023-09-07T02:14:39;19.50;99.90
6756;DHT22;3415;51.148;7.014;2023-09-07T02:17:06;19.50;99.90
6756;DHT22;3415;51.148;7.014;2023-09-07T02:19:33;19.50;99.90
6756;DHT22;3415;51.148;7.014;2023-09-07T02:22:00;19.50;99.90
6756;DHT22;3415;51.148;7.014;2023-09-07T02:24:27;19.60;99.90
6756;DHT22;3415;51.148;7.014;2023-09-07T02:26:54;19.50;99.90
6756;DHT22;3415;51.148;7.014;2023-09-07T02:29:21;19.80;99.90
6756;DHT22;3415;51.148;7.014;2023-09-07T02:31:49;19.50;99.90
6756;DHT22;3415;51.148;7.014;2023-09-07T02:34:16;19.50;99.90
6756;DHT22;3415;51.148;7.014;2023-09-07T02:36:42;19.50;99.90
6756;DHT22;3415;51.148;7.014;2023-09-07T02:39:10;19.50;99.90
6756;DHT22;3415;51.148;7.014;2023-09-07T02:41:37;19.50;99.90
6756;DHT22;3415;51.148;7.014;2023-09-07T02:44:05;19.50;99.90
6756;DHT22;3415;51.148;7.014;2023-09-07T02:46:31;19.50;99.90
6756;DHT22;3415;51.148;7.014;2023-09-07T02:48:59;19.80;99.90
6756;DHT22;3415;51.148;7.014;2023-09-07T02:51:26;19.40;99.90
6756;DHT22;3415;51.148;7.014;2023-09-07T02:53:53;19.40;99.90
6756;DHT22;3415;51.148;7.014;2023-09-07T02:56:20;19.30;99.90
6756;DHT22;3415;51.148;7.014;2023-09-07T02:58:47;19.10;99.90
6756;DHT22;3415;51.148;7.014;2023-09-07T03:01:14;19.30;99.90
6756;DHT22;3415;51.148;7.014;2023-09-07T03:03:46;19.30;99.90
6756;DHT22;3415;51.148;7.014;2023-09-07T03:06:15;19.10;99.90
6756;DHT22;3415;51.148;7.014;2023-09-07T03:08:42;19.20;99.90
6756;DHT22;3415;51.148;7.014;2023-09-07T03:11:09;19.10;99.90
6756;DHT22;3415;51.148;7.014;2023-09-07T03:13:36;19.20;99.90
6756;DHT22;3415;51.148;7.014;2023-09-07T03:16:04;19.10;99.90
6756;DHT22;3415;51.148;7.014;2023-09-07T03:18:31;19.10;99.90
6756;DHT22;3415;51.148;7.014;2023-09-07T03:21:01;19.20;99.90
6756;DHT22;3415;51.148;7.014;2023-09-07T03:23:30;19.30;99.90
6756;DHT22;3415;51.148;7.014;2023-09-07T03:25:57;19.30;99.90
6756;DHT22;3415;51.148;7.014;2023-09-07T03:28:24;19.20;99.90
6756;DHT22;3415;51.148;7.014;2023-09-07T03:30:51;19.20;99.90
6756;DHT22;3415;51.148;7.014;2023-09-07T03:33:18;19.20;99.90
6756;DHT22;3415;51.148;7.014;2023-09-07T03:35:45;19.20;99.90
6756;DHT22;3415;51.148;7.014;2023-09-07T03:38:12;19.10;99.90
6756;DHT22;3415;51.148;7.014;2023-09-07T03:40:41;19.00;99.90
6756;DHT22;3415;51.148;7.014;2023-09-07T03:43:07;19.00;99.90
6756;DHT22;3415;51.148;7.014;2023-09-07T03:45:34;19.00;99.90
6756;DHT22;3415;51.148;7.014;2023-09-07T03:48:01;19.00;99.90
6756;DHT22;3415;51.148;7.014;2023-09-07T03:50:28;19.00;99.90
6756;DHT22;3415;51.148;7.014;2023-09-07T03:52:54;19.10;99.90
6756;DHT22;3415;51.148;7.014;2023-09-07T03:55:21;19.10;99.90
6756;DHT22;3415;51.148;7.014;2023-09-07T03:57:49;19.10;99.90
6756;DHT22;3415;51.148;7.014;2023-09-07T04:00:17;19.10;99.90
6756;DHT22;3415;51.148;7.014;2023-09-07T04:02:44;19.10;99.90
6756;DHT22;3415;51.148;7.014;2023-09-07T04:05:11;19.10;99.90
6756;DHT22;3415;51.148;7.014;2023-09-07T04:07:38;19.20;99.90
6756;DHT22;3415;51.148;7.014;2023-09-07T04:10:05;19.20;99.90
6756;DHT22;3415;51.148;7.014;2023-09-07T04:12:32;19.10;99.90
6756;DHT22;3415;51.148;7.014;2023-09-07T04:15:01;19.10;99.90
6756;DHT22;3415;51.148;7.014;2023-09-07T04:17:28;19.10;99.90
6756;DHT22;3415;51.148;7.014;2023-09-07T04:19:55;19.10;99.90
6756;DHT22;3415;51.148;7.014;2023-09-07T04:22:22;19.10;99.90
6756;DHT22;3415;51.148;7.014;2023-09-07T04:24:49;19.10;99.90
6756;DHT22;3415;51.148;7.014;2023-09-07T04:27:16;19.00;99.90
6756;DHT22;3415;51.148;7.014;2023-09-07T04:29:42;18.90;99.90
6756;DHT22;3415;51.148;7.014;2023-09-07T04:32:11;19.00;99.90
6756;DHT22;3415;51.148;7.014;2023-09-07T04:34:37;18.90;99.90
6756;DHT22;3415;51.148;7.014;2023-09-07T04:37:04;18.90;99.90
6756;DHT22;3415;51.148;7.014;2023-09-07T04:39:31;18.80;99.90
6756;DHT22;3415;51.148;7.014;2023-09-07T04:41:57;18.70;99.90
6756;DHT22;3415;51.148;7.014;2023-09-07T04:44:26;18.50;99.90
6756;DHT22;3415;51.148;7.014;2023-09-07T04:46:54;18.20;1.00
6756;DHT22;3415;51.148;7.014;2023-09-07T04:49:22;18.20;1.00
6756;DHT22;3415;51.148;7.014;2023-09-07T04:51:49;18.20;1.00
6756;DHT22;3415;51.148;7.014;2023-09-07T04:54:18;17.90;1.00
6756;DHT22;3415;51.148;7.014;2023-09-07T04:56:45;17.90;1.00
6756;DHT22;3415;51.148;7.014;2023-09-07T04:59:12;17.80;1.00
6756;DHT22;3415;51.148;7.014;2023-09-07T05:01:39;17.80;1.00
6756;DHT22;3415;51.148;7.014;2023-09-07T05:04:06;17.70;1.00
6756;DHT22;3415;51.148;7.014;2023-09-07T05:06:34;17.70;1.00
6756;DHT22;3415;51.148;7.014;2023-09-07T05:09:03;17.80;1.00
6756;DHT22;3415;51.148;7.014;2023-09-07T05:11:29;18.00;1.00
6756;DHT22;3415;51.148;7.014;2023-09-07T05:13:56;18.40;1.00
6756;DHT22;3415;51.148;7.014;2023-09-07T05:16:23;18.50;1.00
6756;DHT22;3415;51.148;7.014;2023-09-07T05:18:50;18.80;1.00
6756;DHT22;3415;51.148;7.014;2023-09-07T05:21:17;18.60;1.00
6756;DHT22;3415;51.148;7.014;2023-09-07T05:23:46;18.60;1.00
6756;DHT22;3415;51.148;7.014;2023-09-07T05:26:13;18.70;1.00
6756;DHT22;3415;51.148;7.014;2023-09-07T05:28:40;18.80;1.00
6756;DHT22;3415;51.148;7.014;2023-09-07T05:31:07;18.80;1.00
6756;DHT22;3415;51.148;7.014;2023-09-07T05:33:35;18.90;1.00
6756;DHT22;3415;51.148;7.014;2023-09-07T05:36:02;19.00;1.00
6756;DHT22;3415;51.148;7.014;2023-09-07T05:38:29;19.20;99.90
6756;DHT22;3415;51.148;7.014;2023-09-07T05:40:57;19.40;99.90
6756;DHT22;3415;51.148;7.014;2023-09-07T05:43:24;19.80;99.90
6756;DHT22;3415;51.148;7.014;2023-09-07T05:45:50;20.20;99.90
6756;DHT22;3415;51.148;7.014;2023-09-07T05:48:17;20.70;99.90
6756;DHT22;3415;51.148;7.014;2023-09-07T05:50:45;21.10;99.90
6756;DHT22;3415;51.148;7.014;2023-09-07T05:53:11;21.40;99.90
6756;DHT22;3415;51.148;7.014;2023-09-07T05:55:38;21.70;99.90
6756;DHT22;3415;51.148;7.014;2023-09-07T05:58:07;22.00;99.90
6756;DHT22;3415;51.148;7.014;2023-09-07T06:00:35;22.30;99.90
6756;DHT22;3415;51.148;7.014;2023-09-07T06:03:03;22.60;99.90
6756;DHT22;3415;51.148;7.014;2023-09-07T06:05:30;23.00;99.90
6756;DHT22;3415;51.148;7.014;2023-09-07T06:07:57;23.30;99.90
6756;DHT22;3415;51.148;7.014;2023-09-07T06:10:24;23.40;99.90
6756;DHT22;3415;51.148;7.014;2023-09-07T06:12:51;23.60;99.90
6756;DHT22;3415;51.148;7.014;2023-09-07T06:15:19;23.80;99.90
6756;DHT22;3415;51.148;7.014;2023-09-07T06:17:45;24.00;99.90
6756;DHT22;3415;51.148;7.014;2023-09-07T06:20:12;24.30;99.90
6756;DHT22;3415;51.148;7.014;2023-09-07T06:22:39;24.40;99.90
6756;DHT22;3415;51.148;7.014;2023-09-07T06:25:06;24.60;99.90
6756;DHT22;3415;51.148;7.014;2023-09-07T06:27:33;24.70;99.90
6756;DHT22;3415;51.148;7.014;2023-09-07T06:30:00;25.10;99.90
6756;DHT22;3415;51.148;7.014;2023-09-07T06:32:29;25.40;99.90
6756;DHT22;3415;51.148;7.014;2023-09-07T06:34:56;25.70;99.90
6756;DHT22;3415;51.148;7.014;2023-09-07T06:37:23;26.00;99.90
6756;DHT22;3415;51.148;7.014;2023-09-07T06:39:50;26.50;99.90
6756;DHT22;3415;51.148;7.014;2023-09-07T06:42:17;27.00;99.90
6756;DHT22;3415;51.148;7.014;2023-09-07T06:44:44;27.20;99.90
6756;DHT22;3415;51.148;7.014;2023-09-07T06:47:11;27.40;99.90
6756;DHT22;3415;51.148;7.014;2023-09-07T06:49:40;28.00;99.90
6756;DHT22;3415;51.148;7.014;2023-09-07T06:52:06;28.10;99.90
6756;DHT22;3415;51.148;7.014;2023-09-07T06:54:33;28.50;99.90
6756;DHT22;3415;51.148;7.014;2023-09-07T06:57:00;28.50;99.90
6756;DHT22;3415;51.148;7.014;2023-09-07T06:59:26;29.20;99.90
6756;DHT22;3415;51.148;7.014;2023-09-07T07:01:53;29.80;99.90
6756;DHT22;3415;51.148;7.014;2023-09-07T07:04:20;30.20;99.90
6756;DHT22;3415;51.148;7.014;2023-09-07T07:06:48;30.20;99.90
6756;DHT22;3415;51.148;7.014;2023-09-07T07:09:16;30.10;99.90
6756;DHT22;3415;51.148;7.014;2023-09-07T07:11:43;30.10;99.90
6756;DHT22;3415;51.148;7.014;2023-09-07T07:14:10;30.10;99.90
6756;DHT22;3415;51.148;7.014;2023-09-07T07:16:37;30.30;99.90
6756;DHT22;3415;51.148;7.014;2023-09-07T07:19:05;30.40;99.90
6756;DHT22;3415;51.148;7.014;2023-09-07T07:21:31;30.50;99.90
6756;DHT22;3415;51.148;7.014;2023-09-07T07:24:00;30.20;99.90
6756;DHT22;3415;51.148;7.014;2023-09-07T07:26:27;30.50;99.90
6756;DHT22;3415;51.148;7.014;2023-09-07T07:28:53;31.00;99.90
6756;DHT22;3415;51.148;7.014;2023-09-07T07:31:20;31.30;99.90
6756;DHT22;3415;51.148;7.014;2023-09-07T07:33:47;31.20;99.90
6756;DHT22;3415;51.148;7.014;2023-09-07T07:36:14;31.40;99.90
6756;DHT22;3415;51.148;7.014;2023-09-07T07:38:41;31.60;99.90
6756;DHT22;3415;51.148;7.014;2023-09-07T07:41:09;32.10;99.90
6756;DHT22;3415;51.148;7.014;2023-09-07T07:43:36;31.90;99.90
6756;DHT22;3415;51.148;7.014;2023-09-07T07:46:03;31.90;99.90
6756;DHT22;3415;51.148;7.014;2023-09-07T07:48:30;31.90;99.90
6756;DHT22;3415;51.148;7.014;2023-09-07T07:50:56;32.40;99.90
6756;DHT22;3415;51.148;7.014;2023-09-07T07:53:23;32.80;99.90
6756;DHT22;3415;51.148;7.014;2023-09-07T07:55:50;33.20;99.90
6756;DHT22;3415;51.148;7.014;2023-09-07T07:58:18;33.50;99.90
6756;DHT22;3415;51.148;7.014;2023-09-07T08:00:45;34.10;99.90
6756;DHT22;3415;51.148;7.014;2023-09-07T08:03:14;34.40;99.90
6756;DHT22;3415;51.148;7.014;2023-09-07T08:05:41;34.60;99.90
6756;DHT22;3415;51.148;7.014;2023-09-07T08:08:09;34.30;99.90
6756;DHT22;3415;51.148;7.014;2023-09-07T08:10:37;34.80;99.90
6756;DHT22;3415;51.148;7.014;2023-09-07T08:13:06;34.80;99.90
6756;DHT22;3415;51.148;7.014;2023-09-07T08:15:34;34.70;99.90
6756;DHT22;3415;51.148;7.014;2023-09-07T08:18:01;35.00;99.90
6756;DHT22;3415;51.148;7.014;2023-09-07T08:20:29;35.20;99.90
6756;DHT22;3415;51.148;7.014;2023-09-07T08:22:58;35.40;99.90
6756;DHT22;3415;51.148;7.014;2023-09-07T08:25:29;35.40;99.90
6756;DHT22;3415;51.148;7.014;2023-09-07T08:27:55;35.00;99.90
6756;DHT22;3415;51.148;7.014;2023-09-07T08:30:25;34.80;99.90
6756;DHT22;3415;51.148;7.014;2023-09-07T08:32:53;34.60;99.90
6756;DHT22;3415;51.148;7.014;2023-09-07T08:35:20;35.30;99.90
6756;DHT22;3415;51.148;7.014;2023-09-07T08:37:52;35.00;99.90
6756;DHT22;3415;51.148;7.014;2023-09-07T08:40:19;34.30;99.90
6756;DHT22;3415;51.148;7.014;2023-09-07T08:42:46;35.10;99.90
6756;DHT22;3415;51.148;7.014;2023-09-07T08:45:14;35.10;99.90
6756;DHT22;3415;51.148;7.014;2023-09-07T08:47:46;35.60;99.90
6756;DHT22;3415;51.148;7.014;2023-09-07T08:50:15;36.00;99.90
6756;DHT22;3415;51.148;7.014;2023-09-07T08:52:43;36.30;99.90
6756;DHT22;3415;51.148;7.014;2023-09-07T08:55:12;35.60;99.90
6756;DHT22;3415;51.148;7.014;2023-09-07T08:57:40;35.60;99.90
6756;DHT22;3415;51.148;7.014;2023-09-07T09:00:07;36.70;99.90
6756;DHT22;3415;51.148;7.014;2023-09-07T09:02:39;36.20;99.90
6756;DHT22;3415;51.148;7.014;2023-09-07T09:05:09;36.30;99.90
6756;DHT22;3415;51.148;7.014;2023-09-07T09:07:37;36.00;99.90
6756;DHT22;3415;51.148;7.014;2023-09-07T09:10:05;35.70;99.90
6756;DHT22;3415;51.148;7.014;2023-09-07T09:12:32;36.00;99.90
6756;DHT22;3415;51.148;7.014;2023-09-07T09:15:00;35.80;99.90
6756;DHT22;3415;51.148;7.014;2023-09-07T09:17:27;35.80;99.90
6756;DHT22;3415;51.148;7.014;2023-09-07T09:19:53;37.00;99.90
6756;DHT22;3415;51.148;7.014;2023-09-07T09:22:20;37.00;99.90
6756;DHT22;3415;51.148;7.014;2023-09-07T09:24:49;36.60;99.90
6756;DHT22;3415;51.148;7.014;2023-09-07T09:27:16;36.20;99.90
6756;DHT22;3415;51.148;7.014;2023-09-07T09:29:43;37.10;99.90
6756;DHT22;3415;51.148;7.014;2023-09-07T09:32:09;37.40;99.90
6756;DHT22;3415;51.148;7.014;2023-09-07T09:34:37;38.20;99.90
6756;DHT22;3415;51.148;7.014;2023-09-07T09:37:04;37.60;99.90
6756;DHT22;3415;51.148;7.014;2023-09-07T09:39:39;37.20;99.90
6756;DHT22;3415;51.148;7.014;2023-09-07T09:42:08;36.10;99.90
6756;DHT22;3415;51.148;7.014;2023-09-07T09:44:36;36.80;99.90
6756;DHT22;3415;51.148;7.014;2023-09-07T09:47:06;37.00;99.90
6756;DHT22;3415;51.148;7.014;2023-09-07T09:49:35;37.70;99.90
6756;DHT22;3415;51.148;7.014;2023-09-07T09:52:02;38.70;99.90
6756;DHT22;3415;51.148;7.014;2023-09-07T09:54:30;39.10;99.90
6756;DHT22;3415;51.148;7.014;2023-09-07T09:56:58;39.30;99.90
6756;DHT22;3415;51.148;7.014;2023-09-07T09:59:27;39.80;99.90
6756;DHT22;3415;51.148;7.014;2023-09-07T10:01:54;39.00;99.90
6756;DHT22;3415;51.148;7.014;2023-09-07T10:04:22;39.00;99.90
6756;DHT22;3415;51.148;7.014;2023-09-07T10:06:53;38.90;99.90
6756;DHT22;3415;51.148;7.014;2023-09-07T10:09:19;38.90;99.90
6756;DHT22;3415;51.148;7.014;2023-09-07T10:11:51;38.50;99.90
6756;DHT22;3415;51.148;7.014;2023-09-07T10:14:19;39.20;99.90
6756;DHT22;3415;51.148;7.014;2023-09-07T10:16:48;39.80;99.90
6756;DHT22;3415;51.148;7.014;2023-09-07T10:19:18;39.60;99.90
6756;DHT22;3415;51.148;7.014;2023-09-07T10:21:45;40.10;99.90
6756;DHT22;3415;51.148;7.014;2023-09-07T10:24:23;40.40;99.90
6756;DHT22;3415;51.148;7.014;2023-09-07T10:26:56;40.40;99.90
6756;DHT22;3415;51.148;7.014;2023-09-07T10:29:23;39.10;99.90
6756;DHT22;3415;51.148;7.014;2023-09-07T10:31:52;39.60;99.90
6756;DHT22;3415;51.148;7.014;2023-09-07T10:34:19;39.00;99.90
6756;DHT22;3415;51.148;7.014;2023-09-07T10:36:47;39.30;99.90
6756;DHT22;3415;51.148;7.014;2023-09-07T10:39:16;39.70;99.90
6756;DHT22;3415;51.148;7.014;2023-09-07T10:41:45;39.90;99.90
6756;DHT22;3415;51.148;7.014;2023-09-07T10:44:11;41.10;99.90
6756;DHT22;3415;51.148;7.014;2023-09-07T10:46:39;41.00;99.90
6756;DHT22;3415;51.148;7.014;2023-09-07T10:49:08;40.90;99.90
6756;DHT22;3415;51.148;7.014;2023-09-07T10:51:41;40.90;99.90
6756;DHT22;3415;51.148;7.014;2023-09-07T10:54:15;41.20;99.90
6756;DHT22;3415;51.148;7.014;2023-09-07T10:56:44;41.50;99.90
6756;DHT22;3415;51.148;7.014;2023-09-07T10:59:13;42.50;99.90
6756;DHT22;3415;51.148;7.014;2023-09-07T11:01:40;42.00;99.90
6756;DHT22;3415;51.148;7.014;2023-09-07T11:04:08;41.70;99.90
6756;DHT22;3415;51.148;7.014;2023-09-07T11:06:36;41.20;99.90
6756;DHT22;3415;51.148;7.014;2023-09-07T11:09:04;41.20;99.90
6756;DHT22;3415;51.148;7.014;2023-09-07T11:11:34;41.90;99.90
6756;DHT22;3415;51.148;7.014;2023-09-07T11:14:02;42.10;99.90
6756;DHT22;3415;51.148;7.014;2023-09-07T11:16:29;42.10;99.90
6756;DHT22;3415;51.148;7.014;2023-09-07T11:18:55;40.90;99.90
6756;DHT22;3415;51.148;7.014;2023-09-07T11:21:24;42.30;99.90
6756;DHT22;3415;51.148;7.014;2023-09-07T11:23:51;43.10;99.90
6756;DHT22;3415;51.148;7.014;2023-09-07T11:26:18;42.30;99.90
6756;DHT22;3415;51.148;7.014;2023-09-07T11:28:46;42.40;99.90
6756;DHT22;3415;51.148;7.014;2023-09-07T11:31:13;42.30;99.90
6756;DHT22;3415;51.148;7.014;2023-09-07T11:33:41;42.50;99.90
6756;DHT22;3415;51.148;7.014;2023-09-07T11:36:07;42.40;99.90
6756;DHT22;3415;51.148;7.014;2023-09-07T11:38:43;42.30;99.90
6756;DHT22;3415;51.148;7.014;2023-09-07T11:41:10;41.00;99.90
6756;DHT22;3415;51.148;7.014;2023-09-07T11:43:36;40.70;99.90
6756;DHT22;3415;51.148;7.014;2023-09-07T11:46:05;41.80;99.90
6756;DHT22;3415;51.148;7.014;2023-09-07T11:48:32;42.80;99.90
6756;DHT22;3415;51.148;7.014;2023-09-07T11:51:00;42.90;99.90
6756;DHT22;3415;51.148;7.014;2023-09-07T11:53:27;42.00;99.90
6756;DHT22;3415;51.148;7.014;2023-09-07T11:55:56;41.80;99.90
6756;DHT22;3415;51.148;7.014;2023-09-07T11:58:23;41.50;99.90
6756;DHT22;3415;51.148;7.014;2023-09-07T12:00:52;41.00;99.90
6756;DHT22;3415;51.148;7.014;2023-09-07T12:03:19;41.30;99.90
6756;DHT22;3415;51.148;7.014;2023-09-07T12:05:45;41.50;99.90
6756;DHT22;3415;51.148;7.014;2023-09-07T12:08:12;40.40;99.90
6756;DHT22;3415;51.148;7.014;2023-09-07T12:10:40;38.10;99.90
6756;DHT22;3415;51.148;7.014;2023-09-07T12:13:08;35.60;99.90
6756;DHT22;3415;51.148;7.014;2023-09-07T12:15:35;34.20;99.90
6756;DHT22;3415;51.148;7.014;2023-09-07T12:18:01;33.50;99.90
6756;DHT22;3415;51.148;7.014;2023-09-07T12:20:28;32.80;99.90
6756;DHT22;3415;51.148;7.014;2023-09-07T12:22:55;31.80;99.90
6756;DHT22;3415;51.148;7.014;2023-09-07T12:25:22;31.40;99.90
6756;DHT22;3415;51.148;7.014;2023-09-07T12:27:48;31.20;99.90
6756;DHT22;3415;51.148;7.014;2023-09-07T12:30:17;31.30;99.90
6756;DHT22;3415;51.148;7.014;2023-09-07T12:32:46;31.10;99.90
6756;DHT22;3415;51.148;7.014;2023-09-07T12:35:13;31.00;99.90
6756;DHT22;3415;51.148;7.014;2023-09-07T12:37:40;30.80;99.90
6756;DHT22;3415;51.148;7.014;2023-09-07T12:40:08;30.80;99.90
6756;DHT22;3415;51.148;7.014;2023-09-07T12:42:39;30.80;99.90
6756;DHT22;3415;51.148;7.014;2023-09-07T12:45:07;30.80;99.90
6756;DHT22;3415;51.148;7.014;2023-09-07T12:47:35;30.70;99.90
6756;DHT22;3415;51.148;7.014;2023-09-07T12:50:02;30.80;99.90
6756;DHT22;3415;51.148;7.014;2023-09-07T12:52:30;30.70;99.90
6756;DHT22;3415;51.148;7.014;2023-09-07T12:54:57;30.70;99.90
6756;DHT22;3415;51.148;7.014;2023-09-07T12:57:23;30.50;99.90
6756;DHT22;3415;51.148;7.014;2023-09-07T12:59:50;30.50;99.90
6756;DHT22;3415;51.148;7.014;2023-09-07T13:02:17;30.60;99.90
6756;DHT22;3415;51.148;7.014;2023-09-07T13:04:45;30.70;99.90
6756;DHT22;3415;51.148;7.014;2023-09-07T13:07:12;30.80;99.90
6756;DHT22;3415;51.148;7.014;2023-09-07T13:09:39;30.80;99.90
6756;DHT22;3415;51.148;7.014;2023-09-07T13:12:06;30.80;99.90
6756;DHT22;3415;51.148;7.014;2023-09-07T13:14:33;30.70;99.90
6756;DHT22;3415;51.148;7.014;2023-09-07T13:17:00;30.50;99.90
6756;DHT22;3415;51.148;7.014;2023-09-07T13:19:27;30.50;99.90
6756;DHT22;3415;51.148;7.014;2023-09-07T13:21:55;30.50;99.90
6756;DHT22;3415;51.148;7.014;2023-09-07T13:24:22;30.60;99.90
6756;DHT22;3415;51.148;7.014;2023-09-07T13:26:51;30.50;99.90
6756;DHT22;3415;51.148;7.014;2023-09-07T13:29:18;30.50;99.90
6756;DHT22;3415;51.148;7.014;2023-09-07T13:31:44;30.60;99.90
6756;DHT22;3415;51.148;7.014;2023-09-07T13:34:11;30.60;99.90
6756;DHT22;3415;51.148;7.014;2023-09-07T13:36:38;30.70;99.90
6756;DHT22;3415;51.148;7.014;2023-09-07T13:39:06;30.70;99.90
6756;DHT22;3415;51.148;7.014;2023-09-07T13:41:33;30.70;99.90
6756;DHT22;3415;51.148;7.014;2023-09-07T13:44:00;30.80;99.90
6756;DHT22;3415;51.148;7.014;2023-09-07T13:46:26;30.70;99.90
6756;DHT22;3415;51.148;7.014;2023-09-07T13:48:54;30.50;99.90
6756;DHT22;3415;51.148;7.014;2023-09-07T13:51:20;30.50;99.90
6756;DHT22;3415;51.148;7.014;2023-09-07T13:53:47;30.50;99.90
6756;DHT22;3415;51.148;7.014;2023-09-07T13:56:17;30.60;99.90
6756;DHT22;3415;51.148;7.014;2023-09-07T13:58:44;30.70;99.90
6756;DHT22;3415;51.148;7.014;2023-09-07T14:01:11;30.60;99.90
6756;DHT22;3415;51.148;7.014;2023-09-07T14:03:38;30.50;99.90
6756;DHT22;3415;51.148;7.014;2023-09-07T14:06:05;30.70;99.90
6756;DHT22;3415;51.148;7.014;2023-09-07T14:08:31;30.70;99.90
6756;DHT22;3415;51.148;7.014;2023-09-07T14:11:00;30.80;99.90
6756;DHT22;3415;51.148;7.014;2023-09-07T14:13:28;30.60;99.90
6756;DHT22;3415;51.148;7.014;2023-09-07T14:15:55;30.50;99.90
6756;DHT22;3415;51.148;7.014;2023-09-07T14:18:21;30.30;99.90
6756;DHT22;3415;51.148;7.014;2023-09-07T14:20:49;30.40;99.90
6756;DHT22;3415;51.148;7.014;2023-09-07T14:23:16;30.30;99.90
6756;DHT22;3415;51.148;7.014;2023-09-07T14:25:43;30.40;99.90
6756;DHT22;3415;51.148;7.014;2023-09-07T14:28:11;30.50;99.90
6756;DHT22;3415;51.148;7.014;2023-09-07T14:30:39;30.50;99.90
6756;DHT22;3415;51.148;7.014;2023-09-07T14:33:05;30.50;99.90
6756;DHT22;3415;51.148;7.014;2023-09-07T14:35:32;30.60;99.90
6756;DHT22;3415;51.148;7.014;2023-09-07T14:37:59;30.60;99.90
6756;DHT22;3415;51.148;7.014;2023-09-07T14:40:26;30.60;99.90
6756;DHT22;3415;51.148;7.014;2023-09-07T14:42:53;30.50;99.90
6756;DHT22;3415;51.148;7.014;2023-09-07T14:45:22;30.50;99.90
6756;DHT22;3415;51.148;7.014;2023-09-07T14:47:51;30.40;99.90
6756;DHT22;3415;51.148;7.014;2023-09-07T14:50:18;30.50;99.90
6756;DHT22;3415;51.148;7.014;2023-09-07T14:52:45;30.50;99.90
6756;DHT22;3415;51.148;7.014;2023-09-07T14:55:13;30.50;99.90
6756;DHT22;3415;51.148;7.014;2023-09-07T14:57:40;30.60;99.90
6756;DHT22;3415;51.148;7.014;2023-09-07T15:00:09;30.40;99.90
6756;DHT22;3415;51.148;7.014;2023-09-07T15:02:37;30.40;99.90
6756;DHT22;3415;51.148;7.014;2023-09-07T15:05:05;30.30;99.90
6756;DHT22;3415;51.148;7.014;2023-09-07T15:07:32;30.40;99.90
6756;DHT22;3415;51.148;7.014;2023-09-07T15:09:59;30.40;99.90
6756;DHT22;3415;51.148;7.014;2023-09-07T15:12:26;30.40;99.90
6756;DHT22;3415;51.148;7.014;2023-09-07T15:14:52;30.30;99.90
6756;DHT22;3415;51.148;7.014;2023-09-07T15:17:19;30.30;99.90
6756;DHT22;3415;51.148;7.014;2023-09-07T15:19:46;30.30;99.90
6756;DHT22;3415;51.148;7.014;2023-09-07T15:22:14;30.30;99.90
6756;DHT22;3415;51.148;7.014;2023-09-07T15:24:41;30.20;99.90
6756;DHT22;3415;51.148;7.014;2023-09-07T15:27:09;30.20;99.90
6756;DHT22;3415;51.148;7.014;2023-09-07T15:29:36;30.20;99.90
6756;DHT22;3415;51.148;7.014;2023-09-07T15:32:03;30.30;99.90
6756;DHT22;3415;51.148;7.014;2023-09-07T15:34:31;30.30;99.90
6756;DHT22;3415;51.148;7.014;2023-09-07T15:36:59;30.40;99.90
6756;DHT22;3415;51.148;7.014;2023-09-07T15:39:27;30.30;99.90
6756;DHT22;3415;51.148;7.014;2023-09-07T15:41:54;30.30;99.90
6756;DHT22;3415;51.148;7.014;2023-09-07T15:44:21;30.30;99.90
6756;DHT22;3415;51.148;7.014;2023-09-07T15:46:49;30.20;99.90
6756;DHT22;3415;51.148;7.014;2023-09-07T15:49:16;30.20;99.90
6756;DHT22;3415;51.148;7.014;2023-09-07T15:51:43;30.10;99.90
6756;DHT22;3415;51.148;7.014;2023-09-07T15:54:10;30.20;99.90
6756;DHT22;3415;51.148;7.014;2023-09-07T15:56:38;30.10;99.90
6756;DHT22;3415;51.148;7.014;2023-09-07T15:59:05;30.10;99.90
6756;DHT22;3415;51.148;7.014;2023-09-07T16:01:32;30.00;99.90
6756;DHT22;3415;51.148;7.014;2023-09-07T16:03:59;30.00;99.90
6756;DHT22;3415;51.148;7.014;2023-09-07T16:06:26;29.90;99.90